Flight Track Log - Related Links

Times and Time Zones

All times are in EDT time to prevent confusion due to time zone crossing. See the ASQ5685 flight status page for this flight to view local times or setup timezone preferences in your user account.


Time Position Orientation Groundspeed Altitude Reporting Facility
EDT Latitude Longitude Course Direction KTS MPH feet Rate Location/Type
Wed 09:47:31 AM 33.6306 -84.4778 68° East 393 452 2,500  Level Atlanta Center
Wed 09:48:31 AM 33.6033 -84.5475 245° Southwest 278 320 4,100 2,050 Climbing Atlanta Center
Wed 09:49:00 AM 33.8642 -84.1575 48° Northeast  Level Estimated
Wed 09:49:31 AM 33.5383 -84.5872 207° Southwest 246 283 6,600  Level Atlanta Center
Wed 09:50:00 AM 33.9399 -84.0671 53° Northeast  Level Estimated
Wed 09:50:31 AM 33.4614 -84.5567 162° South 288 331 9,100  Level Atlanta Center
Wed 09:51:00 AM 33.9799 -83.9480 68° East  Level FlightAware Approximate
Wed 09:51:31 AM 33.4533 -84.4572 96° East 287 330 10,800  Level Atlanta Center
Wed 09:52:00 AM 34.0198 -83.8287 68° East  Level FlightAware Approximate
Wed 09:52:31 AM 33.4536 -84.3475 90° East 307 353 11,800  Level Atlanta Center
Wed 09:53:31 AM 33.4997 -84.2456 62° Northeast 338 389 13,100 1,350 Climbing Atlanta Center
Wed 09:54:31 AM 33.5897 -84.1883 28° Northeast 334 384 14,500 1,350 Climbing Atlanta Center
Wed 09:55:31 AM 33.6794 -84.1311 28° Northeast 352 405 15,800 1,100 Climbing Atlanta Center
Wed 09:56:31 AM 33.7608 -84.0489 40° Northeast 368 423 16,700 850 Climbing Atlanta Center
Wed 09:57:31 AM 33.8150 -83.9364 60° Northeast 382 440 17,500 700 Climbing Atlanta Center
Wed 09:58:31 AM 33.8733 -83.8236 58° Northeast 398 458 18,100 700 Climbing Atlanta Center
Wed 09:59:31 AM 33.9336 -83.7108 57° Northeast 398 458 18,900 800 Climbing Atlanta Center
Wed 10:00:31 AM 34.0022 -83.6028 53° Northeast 405 466 19,700 800 Climbing Atlanta Center
Wed 10:01:31 AM 34.0686 -83.4947 53° Northeast 405 466 20,500 800 Climbing Atlanta Center
Wed 10:02:31 AM 34.1369 -83.3864 53° Northeast 400 460 21,300 850 Climbing Atlanta Center
Wed 10:03:31 AM 34.2031 -83.2803 53° Northeast 394 453 22,200 850 Climbing Atlanta Center
Wed 10:04:31 AM 34.2711 -83.1717 53° Northeast 394 453 23,000 650 Climbing Atlanta Center
Wed 10:05:31 AM 34.3311 -83.0728 54° Northeast 394 453 23,500 550 Climbing Atlanta Center
Wed 10:06:31 AM 34.4011 -82.9614 53° Northeast 401 461 24,100 600 Climbing Atlanta Center
Wed 10:07:31 AM 34.4689 -82.8494 54° Northeast 412 474 24,700 600 Climbing Atlanta Center
Wed 10:08:31 AM 34.5386 -82.7375 53° Northeast 414 476 25,300 600 Climbing Atlanta Center
Wed 10:09:31 AM 34.6125 -82.6253 51° Northeast 419 482 25,900 650 Climbing Atlanta Center
Wed 10:10:31 AM 34.6864 -82.5053 53° Northeast 414 476 26,600 550 Climbing Atlanta Center
Wed 10:11:31 AM 34.7536 -82.3878 55° Northeast 414 476 27,000 200 Climbing Atlanta Center
Wed 10:12:31 AM 34.8250 -82.2725 53° Northeast 414 476 27,000  Level Atlanta Center
Wed 10:13:31 AM 34.8983 -82.1519 53° Northeast 420 483 27,000  Level Atlanta Center
Wed 10:14:31 AM 34.9656 -82.0442 53° Northeast 441 507 27,000  Level Atlanta Center
Wed 10:15:31 AM 35.0386 -81.9206 54° Northeast 441 507 27,000  Level Atlanta Center
Wed 10:16:31 AM 35.1153 -81.7814 56° Northeast 446 513 27,000  Level Atlanta Center
Wed 10:17:31 AM 35.1797 -81.6528 58° Northeast 446 513 27,000  Level Atlanta Center
Wed 10:18:31 AM 35.2461 -81.5286 57° Northeast 441 507 27,000  Level Atlanta Center
Wed 10:19:31 AM 35.3122 -81.4019 57° Northeast 441 507 27,000  Level Atlanta Center
Wed 10:20:31 AM 35.3764 -81.2750 58° Northeast 441 507 27,000  Level Atlanta Center
Wed 10:21:31 AM 35.4422 -81.1456 58° Northeast 441 507 27,000  Level Atlanta Center
Wed 10:22:31 AM 35.5081 -81.0181 58° Northeast 441 507 27,000  Level Atlanta Center
Wed 10:23:31 AM 35.5758 -80.8931 56° Northeast 441 507 27,000  Level Atlanta Center
Wed 10:24:31 AM 35.6433 -80.7653 57° Northeast 441 507 27,000  Level Atlanta Center
Wed 10:25:31 AM 35.7064 -80.6350 59° Northeast 441 507 27,000  Level Atlanta Center
Wed 10:26:31 AM 35.7739 -80.5067 57° Northeast 441 507 27,000  Level Atlanta Center
Wed 10:27:31 AM 35.8389 -80.3808 57° Northeast 446 513 27,000  Level Atlanta Center
Wed 10:30:01 AM 36.0014 -80.0697 57° Northeast 448 516 27,000  Level Washington Center
Wed 10:30:59 AM 36.0686 -79.9425 57° Northeast 436 502 27,000  Level Washington Center
Wed 10:32:01 AM 36.1397 -79.8203 54° Northeast 436 502 27,000  Level Washington Center
Wed 10:33:01 AM 36.2131 -79.6956 54° Northeast 442 509 27,000  Level Washington Center
Wed 10:33:59 AM 36.2958 -79.5867 47° Northeast 437 503 27,000  Level Washington Center
Wed 10:35:00 AM 36.3861 -79.5136 33° Northeast 425 489 27,000  Level Washington Center
Wed 10:36:00 AM 36.4928 -79.4364 30° Northeast 431 496 27,000  Level Washington Center
Wed 10:37:01 AM 36.6019 -79.3514 32° Northeast 431 496 27,000  Level Washington Center
Wed 10:38:01 AM 36.6886 -79.2492 43° Northeast 419 482 27,000  Level Washington Center
Wed 10:38:59 AM 36.7611 -79.1308 53° Northeast 424 488 27,000 -102 Level Washington Center
Wed 10:39:59 AM 36.8356 -79.0072 53° Northeast 424 488 26,800 -446 Descending Washington Center
Wed 10:41:00 AM 36.9014 -78.8931 54° Northeast 434 499 26,100 -836 Descending Washington Center
Wed 10:42:01 AM 36.9797 -78.7664 52° Northeast 445 512 25,100 -555 Descending Washington Center
Wed 10:42:59 AM 37.0478 -78.6392 56° Northeast 452 520 25,000 -50 Descending Washington Center
Wed 10:44:00 AM 37.1056 -78.5008 62° Northeast 416 479 25,000 -49 Level Washington Center
Wed 10:45:01 AM 37.1564 -78.3803 62° Northeast 397 457 24,900 -694 Descending Washington Center
Wed 10:46:01 AM 37.2072 -78.2569 63° Northeast 397 457 23,600 -1,169 Descending Washington Center
Wed 10:46:59 AM 37.2597 -78.1467 59° Northeast 382 440 22,600 -814 Descending Washington Center
Wed 10:47:59 AM 37.3444 -78.0761 34° Northeast 358 412 22,000 -298 Descending Washington Center
Wed 10:49:00 AM 37.4336 -78.0111 30° Northeast 357 411 22,000  Level Washington Center
Wed 10:50:00 AM 37.5203 -77.9483 30° Northeast 363 418 22,000  Level Washington Center
Wed 10:51:01 AM 37.6092 -77.8778 32° Northeast 363 418 22,000 -595 Level Washington Center
Wed 10:52:01 AM 37.6961 -77.8122 31° Northeast 363 418 20,800 -1,475 Descending Washington Center
Wed 10:52:59 AM 37.7847 -77.7492 29° Northeast 363 418 19,100 -1,765 Descending Washington Center
Wed 10:54:00 AM 37.8694 -77.6831 32° Northeast 363 418 17,300 -1,869 Descending Washington Center
Wed 10:55:01 AM 37.9497 -77.6222 31° Northeast 363 418 15,300 -1,869 Descending Washington Center
Wed 10:56:02 AM 38.0278 -77.5608 32° Northeast 344 396 13,500 -1,780 Descending Washington Center
Wed 10:56:59 AM 38.0975 -77.5125 29° Northeast 320 368 11,800 -1,729 Descending Washington Center
Wed 10:58:00 AM 38.1669 -77.4589 31° Northeast 305 351 10,100 -885 Descending Washington Center
Wed 10:59:01 AM 38.2367 -77.4158 26° Northeast 286 329 10,000 -50 Descending Washington Center
Wed 10:59:59 AM 38.3039 -77.3750 25° Northeast 275 316 10,000 -605 Level Washington Center
Wed 11:01:00 AM 38.3747 -77.3714 North 268 308 8,800 -1,736 Descending Washington Center
Wed 11:02:00 AM 38.4408 -77.4233 328° Northwest 253 291 6,500 -2,132 Descending Washington Center
Wed 11:03:01 AM 38.5153 -77.4544 342° North 253 291 4,500 -1,339 Descending Washington Center
Wed 11:04:01 AM 38.5697 -77.4450 North 239 275 3,800 -763 Descending Washington Center
Wed 11:04:59 AM 38.6239 -77.4439 North 208 239 3,000 -403 Descending Washington Center
Wed 11:06:00 AM 38.6781 -77.4425 North 193 222 3,000  Level Washington Center
Wed 11:07:00 AM 38.7303 -77.4411 North 188 216 3,000 -469 Level Washington Center
Wed 11:08:08 AM 38.8000 -77.4333 North 180 207 2,000 -469 Descending Potomac TRACON
Wed 11:09:08 AM 38.8500 -77.4333 360° North 167 192 2,000 -397 Level Potomac TRACON
Wed 11:10:09 AM 38.8833 -77.4333 360° North 142 163 1,200 -787 Descending Potomac TRACON

Login

Don't have an account? Register now (free) for customized features, flight alerts, and more!